Time;durP1;ratioP1;P1;durP2;ratioP2;P2;SDS_P1;SDS_P2;PMS_P1;PMS_P2;Temp;Humidity;BMP_temperature;BMP_pressure;BME280_temperature;BME280_humidity;BME280_pressure;Samples;Min_cycle;Max_cycle;Signal;HPM_P1;HPM_P2
2023/03/10 00:01:14;;;;;;;1.67;1.58;;;;;;;20.43;30.03;99141.03;5018340;28;20033;-82
2023/03/10 00:03:40;;;;;;;1.92;1.83;;;;;;;20.44;30.05;99140.00;5040907;28;20033;-81
2023/03/10 00:06:06;;;;;;;1.98;1.80;;;;;;;20.45;30.02;99138.16;5019134;28;20048;-81
2023/03/10 00:08:32;;;;;;;1.60;1.50;;;;;;;20.37;30.01;99125.22;5024869;28;20111;-81
2023/03/10 00:10:59;;;;;;;2.20;2.00;;;;;;;20.48;30.02;99124.50;4998989;28;20545;-81
2023/03/10 00:13:25;;;;;;;1.73;1.63;;;;;;;20.46;30.07;99119.41;5033928;28;20590;-81
2023/03/10 00:15:50;;;;;;;1.60;1.50;;;;;;;20.45;30.14;99111.72;5013028;28;20037;-83
2023/03/10 00:18:16;;;;;;;2.00;1.90;;;;;;;20.43;30.06;99103.22;5036654;28;20033;-80
2023/03/10 00:20:42;;;;;;;1.80;1.70;;;;;;;20.41;30.21;99094.69;5018432;28;20050;-81
2023/03/10 00:23:07;;;;;;;1.77;1.67;;;;;;;20.36;29.96;99083.97;5040003;28;20056;-80
2023/03/10 00:25:33;;;;;;;1.80;1.70;;;;;;;20.36;30.10;99078.69;4998321;28;20181;-80
2023/03/10 00:27:58;;;;;;;1.75;1.52;;;;;;;20.42;30.10;99089.19;5003824;28;20068;-80
2023/03/10 00:30:24;;;;;;;1.83;1.73;;;;;;;20.38;30.05;99080.06;5039783;28;20052;-81
2023/03/10 00:32:49;;;;;;;1.67;1.58;;;;;;;20.44;30.03;99076.53;5012949;28;21188;-83
2023/03/10 00:35:15;;;;;;;1.80;1.70;;;;;;;20.33;30.10;99060.63;5033644;28;20048;-80
2023/03/10 00:37:41;;;;;;;1.70;1.52;;;;;;;20.39;30.08;99068.47;5016358;28;20048;-83
2023/03/10 00:40:14;;;;;;;1.58;1.48;;;;;;;20.41;29.98;99050.56;5025520;28;20037;-81
2023/03/10 00:42:40;;;;;;;1.70;1.60;;;;;;;20.27;30.19;99035.88;5015344;28;20033;-82
2023/03/10 00:45:06;;;;;;;1.90;1.70;;;;;;;20.42;30.05;99048.72;5035949;28;20041;-81
2023/03/10 00:47:32;;;;;;;2.00;1.80;;;;;;;20.38;30.07;99043.06;4998085;28;20129;-82
2023/03/10 00:49:58;;;;;;;1.63;1.48;;;;;;;20.39;30.17;99046.50;5038269;28;20061;-81
2023/03/10 00:52:31;;;;;;;1.60;1.50;;;;;;;20.32;30.17;99038.69;5012799;28;20038;-82
2023/03/10 00:54:57;;;;;;;1.70;1.60;;;;;;;20.34;30.03;99041.91;5039398;28;20045;-81
2023/03/10 00:57:22;;;;;;;1.67;1.58;;;;;;;20.40;30.07;99026.97;4980157;28;20045;-81
2023/03/10 00:59:51;;;;;;;1.77;1.67;;;;;;;20.33;29.98;99018.34;5037315;28;20053;-81
2023/03/10 01:02:18;;;;;;;1.73;1.63;;;;;;;20.29;30.03;99022.44;5007696;28;20097;-81
2023/03/10 01:04:44;;;;;;;1.80;1.70;;;;;;;20.37;29.92;99030.88;5022167;28;20034;-81
2023/03/10 01:07:09;;;;;;;1.60;1.50;;;;;;;20.37;30.06;99017.66;5003847;28;20129;-81
2023/03/10 01:09:35;;;;;;;1.70;1.60;;;;;;;20.25;30.00;98998.31;5039334;28;20056;-81
2023/03/10 01:12:00;;;;;;;2.00;1.80;;;;;;;20.28;30.11;98997.03;5011793;28;20049;-81
2023/03/10 01:14:26;;;;;;;1.80;1.70;;;;;;;20.36;30.11;99002.81;5028536;28;20080;-82
2023/03/10 01:16:52;;;;;;;1.88;1.70;;;;;;;20.34;30.11;99004.09;5002799;28;20041;-81
2023/03/10 01:19:19;;;;;;;1.70;1.60;;;;;;;20.31;29.90;99001.91;4991979;28;20033;-81
2023/03/10 01:21:45;;;;;;;1.70;1.60;;;;;;;20.34;29.69;98996.97;5015110;28;20080;-80
2023/03/10 01:24:14;;;;;;;2.58;1.90;;;;;;;20.27;29.97;98987.50;5028204;28;20030;-81
2023/03/10 01:26:41;;;;;;;1.58;1.48;;;;;;;20.28;30.10;98999.69;5012547;28;20052;-81
2023/03/10 01:29:07;;;;;;;1.83;1.73;;;;;;;20.32;30.01;99006.16;5021750;28;20030;-81
2023/03/10 01:31:32;;;;;;;2.15;1.95;;;;;;;20.32;30.03;99004.31;4983552;28;20096;-81
2023/03/10 01:33:58;;;;;;;2.35;2.15;;;;;;;20.28;30.29;99008.41;5033667;28;20049;-81
2023/03/10 01:36:26;;;;;;;1.70;1.60;;;;;;;20.27;30.05;98996.25;4997492;28;20048;-81
2023/03/10 01:38:53;;;;;;;2.15;1.95;;;;;;;20.32;30.01;99000.88;5039467;28;20041;-81
2023/03/10 01:41:20;;;;;;;1.98;1.83;;;;;;;20.30;30.09;98990.53;5006571;28;20048;-81
2023/03/10 01:43:48;;;;;;;1.90;1.80;;;;;;;20.31;30.11;98978.13;5016415;28;20030;-81
2023/03/10 01:46:26;;;;;;;2.05;1.95;;;;;;;20.27;30.12;98975.09;5020309;28;22287;-81
2023/03/10 01:48:54;;;;;;;1.83;1.73;;;;;;;20.32;30.02;98980.53;5021581;28;20522;-81
2023/03/10 01:51:20;;;;;;;1.60;1.48;;;;;;;20.20;30.03;98966.47;5008429;28;20060;-81
2023/03/10 01:53:46;;;;;;;1.88;1.75;;;;;;;20.29;30.00;98985.44;5022038;28;20064;-81
2023/03/10 01:56:13;;;;;;;2.10;1.90;;;;;;;20.20;30.00;98972.56;5017196;28;20037;-81
2023/03/10 01:58:43;;;;;;;2.30;2.08;;;;;;;20.22;30.22;98969.69;5035315;28;20022;-81
2023/03/10 02:01:09;;;;;;;;;;;;;;;20.25;30.06;98969.22;5019837;28;20112;-81
2023/03/10 02:04:07;;;;;;;2.00;1.83;;;;;;;20.31;29.95;98978.91;5014250;28;19927;-81
2023/03/10 02:06:35;;;;;;;1.95;1.85;;;;;;;20.25;30.04;98974.53;4993745;28;20050;-81
2023/03/10 02:09:03;;;;;;;1.80;1.70;;;;;;;20.22;30.12;98972.34;5037085;28;20433;-81
2023/03/10 02:11:28;;;;;;;1.83;1.73;;;;;;;20.26;30.07;98975.31;5009245;28;20048;-82
2023/03/10 02:13:54;;;;;;;2.00;1.90;;;;;;;20.17;30.10;98957.16;5036173;28;20044;-81
2023/03/10 02:16:21;;;;;;;2.20;2.00;;;;;;;20.20;30.20;98969.13;5001644;28;22472;-82
2023/03/10 02:18:47;;;;;;;1.90;1.80;;;;;;;20.22;30.08;98973.13;5019996;28;20097;-82
2023/03/10 02:21:27;;;;;;;1.90;1.73;;;;;;;20.22;30.06;98974.97;5025811;28;20041;-82
2023/03/10 02:23:58;;;;;;;2.28;2.08;;;;;;;20.23;30.22;98972.09;5034497;28;20065;-82
2023/03/10 02:26:39;;;;;;;1.80;1.70;;;;;;;20.22;29.98;98972.34;5013561;28;21191;-82
2023/03/10 02:29:09;;;;;;;1.75;1.63;;;;;;;20.13;30.13;98944.63;5033306;28;20033;-83
2023/03/10 02:31:35;;;;;;;1.80;1.70;;;;;;;19.87;30.01;98911.47;5036562;28;20064;-82
2023/03/10 02:34:02;;;;;;;1.80;1.70;;;;;;;20.12;30.13;98959.69;5006740;28;20025;-82
2023/03/10 02:36:28;;;;;;;2.08;1.88;;;;;;;20.17;30.07;98957.16;5034078;28;20037;-82
2023/03/10 02:38:54;;;;;;;1.95;1.85;;;;;;;20.15;29.98;98958.44;5010154;28;20687;-82
2023/03/10 02:41:25;;;;;;;1.75;1.65;;;;;;;20.00;30.11;98929.78;5014366;28;20048;-82
2023/03/10 02:43:53;;;;;;;2.08;1.88;;;;;;;20.18;30.07;98953.50;5010373;28;20037;-81
2023/03/10 02:46:25;;;;;;;1.67;1.58;;;;;;;20.17;30.21;98959.81;5022276;28;20116;-81
2023/03/10 02:48:51;;;;;;;2.03;1.90;;;;;;;20.18;30.04;98950.03;5009903;28;20189;-81
2023/03/10 02:51:27;;;;;;;1.75;1.65;;;;;;;20.10;30.13;98932.66;5025044;28;20053;-81
2023/03/10 02:53:56;;;;;;;1.52;1.42;;;;;;;20.07;30.16;98933.13;5013636;28;20109;-81
2023/03/10 02:56:23;;;;;;;1.65;1.55;;;;;;;20.09;30.04;98933.69;5032443;28;20068;-81
2023/03/10 02:58:49;;;;;;;1.52;1.42;;;;;;;20.11;30.14;98938.78;5001032;28;20037;-81
2023/03/10 03:01:15;;;;;;;1.83;1.73;;;;;;;20.14;30.17;98935.69;5032251;28;20059;-81
2023/03/10 03:03:41;;;;;;;1.73;1.63;;;;;;;20.18;30.10;98942.91;5013354;28;20034;-81
2023/03/10 03:06:08;;;;;;;2.00;1.90;;;;;;;20.13;30.19;98942.81;5018554;28;20042;-81
2023/03/10 03:08:33;;;;;;;2.05;1.95;;;;;;;20.09;30.38;98935.53;5018456;28;20117;-81
2023/03/10 03:11:01;;;;;;;1.77;1.67;;;;;;;20.12;30.19;98940.38;5009600;28;20056;-81
2023/03/10 03:13:28;;;;;;;1.98;1.85;;;;;;;19.96;30.17;98912.78;4993314;28;20048;-81
2023/03/10 03:15:54;;;;;;;1.60;1.50;;;;;;;20.07;30.16;98929.66;5032895;28;20038;-81
2023/03/10 03:18:20;;;;;;;1.92;1.83;;;;;;;20.09;30.22;98936.34;4998248;28;20037;-81
2023/03/10 03:20:46;;;;;;;1.55;1.45;;;;;;;20.10;30.17;98926.56;5035491;28;20049;-81
2023/03/10 03:23:12;;;;;;;1.55;1.45;;;;;;;20.04;30.21;98919.56;4999583;28;20128;-81
2023/03/10 03:25:40;;;;;;;1.73;1.63;;;;;;;20.04;30.28;98923.00;5035399;28;20042;-82
2023/03/10 03:28:09;;;;;;;1.85;1.67;;;;;;;20.08;29.98;98924.16;5002333;28;20048;-81
2023/03/10 03:30:35;;;;;;;1.65;1.55;;;;;;;20.11;30.11;98929.00;5035646;28;20032;-81
2023/03/10 03:33:03;;;;;;;1.90;1.80;;;;;;;20.13;30.05;98929.59;5009836;28;20605;-81
2023/03/10 03:35:32;;;;;;;1.88;1.77;;;;;;;20.13;30.21;98931.44;5035167;28;20048;-82
2023/03/10 03:37:59;;;;;;;1.70;1.60;;;;;;;20.05;30.14;98910.59;5012010;28;20038;-80
2023/03/10 03:40:27;;;;;;;1.75;1.65;;;;;;;20.09;30.08;98919.69;5029646;28;20051;-81
2023/03/10 03:42:54;;;;;;;1.90;1.75;;;;;;;20.10;30.14;98922.09;4996790;28;20723;-81
2023/03/10 03:45:23;;;;;;;2.13;1.88;;;;;;;20.09;30.12;98928.41;5038285;28;20056;-81
2023/03/10 03:47:49;;;;;;;1.60;1.50;;;;;;;20.11;30.17;98925.56;5016334;28;20038;-81
2023/03/10 03:50:17;;;;;;;1.85;1.58;;;;;;;20.05;30.17;98919.34;5029883;28;20471;-82
2023/03/10 03:52:44;;;;;;;2.53;1.77;;;;;;;20.07;30.19;98925.19;5042531;28;20022;-82
2023/03/10 03:55:13;;;;;;;1.75;1.65;;;;;;;20.08;30.26;98923.34;5028449;28;20053;-82
2023/03/10 03:57:40;;;;;;;1.95;1.77;;;;;;;20.09;30.10;98928.41;5022486;28;20475;-82
2023/03/10 04:00:10;;;;;;;1.73;1.63;;;;;;;20.01;30.16;98920.03;5024865;28;20052;-82
2023/03/10 04:02:38;;;;;;;1.42;1.35;;;;;;;20.05;30.02;98926.44;5030812;28;20042;-81
2023/03/10 04:05:07;;;;;;;1.67;1.50;;;;;;;20.07;30.14;98924.38;5014075;28;20037;-81
2023/03/10 04:07:33;;;;;;;1.90;1.80;;;;;;;20.05;30.17;98921.97;5029350;28;20033;-81
2023/03/10 04:10:00;;;;;;;2.03;1.85;;;;;;;20.06;30.23;98923.59;5023386;28;20033;-81
2023/03/10 04:12:26;;;;;;;1.70;1.60;;;;;;;20.04;30.13;98922.19;5026192;28;20037;-81
2023/03/10 04:14:52;;;;;;;1.80;1.70;;;;;;;20.05;30.15;98935.19;5002279;28;20061;-81
2023/03/10 04:17:18;;;;;;;1.73;1.63;;;;;;;20.06;30.15;98930.72;5040413;28;20034;-81
2023/03/10 04:19:44;;;;;;;2.10;1.90;;;;;;;20.03;30.14;98928.53;5010636;28;20115;-81
2023/03/10 04:22:14;;;;;;;1.60;1.50;;;;;;;19.98;30.33;98926.56;5021855;28;20124;-81
2023/03/10 04:24:40;;;;;;;1.77;1.67;;;;;;;20.07;30.27;98942.88;4995252;28;20072;-81
2023/03/10 04:27:08;;;;;;;2.08;1.80;;;;;;;20.05;30.15;98939.66;5028915;28;20041;-81
2023/03/10 04:29:35;;;;;;;1.70;1.60;;;;;;;19.98;30.13;98931.84;5010715;28;20042;-81
2023/03/10 04:32:01;;;;;;;2.17;1.98;;;;;;;20.03;30.04;98937.25;5021275;28;20030;-83
2023/03/10 04:34:27;;;;;;;1.80;1.70;;;;;;;20.04;30.22;98945.97;5028759;28;20060;-81
2023/03/10 04:36:52;;;;;;;2.13;1.92;;;;;;;20.02;30.17;98948.03;5018681;28;20033;-83
2023/03/10 04:39:18;;;;;;;1.90;1.80;;;;;;;20.03;30.17;98941.72;5035048;28;20060;-81
2023/03/10 04:41:44;;;;;;;1.88;1.70;;;;;;;20.04;30.21;98941.50;5031733;28;20043;-81
2023/03/10 04:44:10;;;;;;;1.83;1.73;;;;;;;19.99;30.25;98932.66;5019031;28;20029;-81
2023/03/10 04:46:38;;;;;;;2.13;1.98;;;;;;;19.95;30.05;98927.03;5028610;28;20091;-81
2023/03/10 04:49:04;;;;;;;2.08;1.88;;;;;;;20.02;30.07;98934.84;5007517;28;20415;-81
2023/03/10 04:51:30;;;;;;;2.10;1.90;;;;;;;20.05;30.18;98935.19;5034401;28;20037;-81
2023/03/10 04:53:56;;;;;;;1.90;1.80;;;;;;;20.01;30.12;98935.88;5020715;28;20053;-81
2023/03/10 04:56:24;;;;;;;2.20;2.00;;;;;;;20.00;30.40;98935.06;5021698;28;20082;-81
2023/03/10 04:58:50;;;;;;;2.22;2.03;;;;;;;19.96;30.20;98931.28;5036368;28;20037;-81
2023/03/10 05:01:16;;;;;;;2.25;2.00;;;;;;;19.93;30.21;98913.25;5035704;28;20747;-81
2023/03/10 05:03:46;;;;;;;;;;;;;;;20.00;30.24;98927.13;5020749;28;20038;-81
2023/03/10 05:06:18;;;;;;;2.00;1.90;;;;;;;19.98;30.26;98923.13;5039219;28;19925;-79
2023/03/10 05:08:49;;;;;;;1.83;1.73;;;;;;;19.99;30.23;98924.72;5034127;28;20037;-80
2023/03/10 05:11:17;;;;;;;1.67;1.58;;;;;;;19.98;30.19;98928.41;5041118;28;20047;-79
2023/03/10 05:13:43;;;;;;;2.20;2.00;;;;;;;19.92;30.21;98919.53;5044042;28;20045;-79
2023/03/10 05:16:14;;;;;;;1.75;1.63;;;;;;;19.97;30.19;98929.44;5037172;28;20057;-80
2023/03/10 05:18:39;;;;;;;1.95;1.85;;;;;;;19.98;30.19;98933.69;5035783;28;20068;-79
2023/03/10 05:21:05;;;;;;;2.08;1.90;;;;;;;19.96;30.24;98919.91;5034416;28;20037;-80
2023/03/10 05:23:31;;;;;;;2.25;2.05;;;;;;;19.91;30.42;98923.19;5021167;28;20061;-79
2023/03/10 05:25:56;;;;;;;2.13;1.85;;;;;;;19.96;30.16;98922.53;5008114;28;20041;-79
2023/03/10 05:28:23;;;;;;;2.17;1.90;;;;;;;19.82;30.24;98911.34;5023826;28;20049;-79
2023/03/10 05:30:49;;;;;;;2.30;2.10;;;;;;;19.79;30.17;98901.25;5033995;28;20107;-80
2023/03/10 05:33:15;;;;;;;2.22;2.03;;;;;;;19.95;30.12;98919.09;5035883;28;20057;-80
2023/03/10 05:35:42;;;;;;;2.30;2.10;;;;;;;19.88;30.16;98913.88;5029823;28;20132;-80
2023/03/10 05:38:08;;;;;;;2.38;2.17;;;;;;;19.86;30.28;98907.22;5017285;28;20033;-79
2023/03/10 05:40:33;;;;;;;2.00;1.90;;;;;;;19.91;30.20;98910.78;5035663;28;20033;-80
2023/03/10 05:43:00;;;;;;;2.65;2.40;;;;;;;19.87;30.20;98907.00;5033028;28;20037;-79
2023/03/10 05:45:27;;;;;;;2.22;2.03;;;;;;;19.90;30.17;98917.09;5022969;28;20095;-80
2023/03/10 05:47:52;;;;;;;2.10;1.90;;;;;;;19.83;30.26;98910.31;5021335;28;20075;-80
2023/03/10 05:50:18;;;;;;;3.15;2.25;;;;;;;19.90;30.15;98918.94;5021409;28;20083;-80
2023/03/10 05:52:44;;;;;;;3.03;2.40;;;;;;;19.88;30.24;98911.25;5021084;28;20793;-79
2023/03/10 05:55:14;;;;;;;2.63;2.40;;;;;;;19.89;30.27;98917.34;5053847;28;20125;-80
2023/03/10 05:57:40;;;;;;;2.60;2.33;;;;;;;19.83;30.27;98903.22;5037796;28;20025;-80
2023/03/10 06:00:09;;;;;;;2.30;2.10;;;;;;;19.86;30.36;98918.59;5033021;28;20036;-80
2023/03/10 06:02:39;;;;;;;2.53;2.33;;;;;;;19.85;30.38;98910.91;5018760;28;20045;-79
2023/03/10 06:05:07;;;;;;;2.50;2.30;;;;;;;19.86;30.17;98921.25;5033457;28;20664;-79
2023/03/10 06:07:34;;;;;;;2.72;2.53;;;;;;;19.81;30.13;98907.91;5037255;28;20041;-80
2023/03/10 06:09:59;;;;;;;3.00;2.70;;;;;;;19.86;30.21;98917.78;5031282;28;20037;-80
2023/03/10 06:12:25;;;;;;;2.85;2.40;;;;;;;19.79;30.23;98904.69;5031120;28;20633;-80
2023/03/10 06:14:50;;;;;;;2.97;2.67;;;;;;;19.88;30.10;98907.81;5034261;28;20487;-79
2023/03/10 06:17:16;;;;;;;2.58;2.33;;;;;;;19.81;30.30;98904.47;5034646;28;20045;-79
2023/03/10 06:19:41;;;;;;;2.65;2.45;;;;;;;19.86;30.29;98912.50;5034251;28;20034;-80
2023/03/10 06:22:07;;;;;;;2.90;2.60;;;;;;;19.83;30.35;98918.25;5034917;28;20472;-80
2023/03/10 06:24:32;;;;;;;3.08;2.63;;;;;;;19.85;30.40;98910.91;5036835;28;20056;-80
2023/03/10 06:26:58;;;;;;;3.00;2.50;;;;;;;19.84;30.26;98915.38;5025481;28;20449;-81
2023/03/10 06:29:23;;;;;;;2.72;2.53;;;;;;;19.77;30.28;98896.19;5022001;28;20064;-80
2023/03/10 06:31:49;;;;;;;3.22;2.70;;;;;;;19.81;30.21;98905.28;5006379;28;20045;-79
2023/03/10 06:34:15;;;;;;;2.78;2.53;;;;;;;19.82;30.29;98898.16;5038426;28;20037;-79
2023/03/10 06:36:40;;;;;;;3.65;2.60;;;;;;;19.86;30.23;98896.66;5020811;28;20045;-79
2023/03/10 06:39:07;;;;;;;2.90;2.60;;;;;;;19.86;30.21;98904.59;5019519;28;20030;-79
2023/03/10 06:41:34;;;;;;;3.00;2.70;;;;;;;19.86;30.26;98904.59;5037959;28;20144;-80
2023/03/10 06:44:00;;;;;;;2.88;2.47;;;;;;;19.85;30.25;98909.06;5036068;28;20201;-79
2023/03/10 06:46:25;;;;;;;2.97;2.67;;;;;;;19.87;30.24;98917.56;5039813;28;20030;-79
2023/03/10 06:48:51;;;;;;;2.90;2.60;;;;;;;19.87;30.15;98916.75;5037175;28;20081;-79
2023/03/10 06:51:19;;;;;;;3.13;2.83;;;;;;;19.85;30.22;98921.47;5038773;28;20466;-80
2023/03/10 06:53:45;;;;;;;2.60;2.40;;;;;;;19.78;30.29;98929.50;5035090;28;20049;-79
2023/03/10 06:56:14;;;;;;;2.58;2.38;;;;;;;19.78;30.36;98926.06;5040816;28;20045;-80
2023/03/10 06:58:41;;;;;;;3.08;2.55;;;;;;;19.82;30.30;98935.94;5034585;28;20041;-80
2023/03/10 07:01:07;;;;;;;2.22;2.03;;;;;;;19.84;30.29;98946.28;5027652;28;20052;-82
2023/03/10 07:03:34;;;;;;;2.70;2.50;;;;;;;19.82;30.25;98951.78;5036330;28;20037;-80
2023/03/10 07:06:00;;;;;;;2.47;2.28;;;;;;;19.81;30.24;98957.28;5038173;28;20042;-80
2023/03/10 07:08:27;;;;;;;2.38;2.17;;;;;;;19.83;30.29;98961.31;5040385;28;20048;-80
2023/03/10 07:10:53;;;;;;;2.50;2.30;;;;;;;19.82;30.22;98957.06;5034429;28;20106;-80
2023/03/10 07:13:18;;;;;;;2.70;2.35;;;;;;;19.80;30.44;98950.41;5031776;28;20124;-78
2023/03/10 07:15:45;;;;;;;2.78;2.50;;;;;;;19.80;30.15;98956.47;5033507;28;20060;-79
2023/03/10 07:18:12;;;;;;;2.63;2.42;;;;;;;19.78;30.22;98940.06;5034335;28;20029;-79
2023/03/10 07:20:43;;;;;;;2.50;2.20;;;;;;;20.15;29.65;98947.84;5033958;28;20092;-79
2023/03/10 07:23:09;;;;;;;2.40;2.20;;;;;;;20.59;29.04;98946.53;5032651;28;20109;-78
2023/03/10 07:25:35;;;;;;;2.50;2.00;;;;;;;21.35;28.39;98944.75;5017656;28;20071;-79
2023/03/10 07:28:01;;;;;;;2.63;2.40;;;;;;;22.20;27.36;98931.47;5030991;28;20192;-80
2023/03/10 07:30:26;;;;;;;2.40;2.20;;;;;;;22.91;26.06;98942.38;5035936;28;20425;-79
2023/03/10 07:32:52;;;;;;;2.10;1.90;;;;;;;23.03;26.15;98943.06;5038696;28;20072;-79
2023/03/10 07:35:18;;;;;;;2.28;2.08;;;;;;;22.84;26.31;98963.78;5035254;28;20052;-78
2023/03/10 07:37:43;;;;;;;2.30;2.10;;;;;;;22.46;27.00;98958.41;5021896;28;20033;-78
2023/03/10 07:40:09;;;;;;;2.33;2.13;;;;;;;22.35;27.00;98960.09;5039793;28;20047;-77
2023/03/10 07:42:35;;;;;;;2.55;2.30;;;;;;;22.08;27.44;98938.69;5036267;28;20096;-78
2023/03/10 07:45:03;;;;;;;2.17;1.90;;;;;;;21.91;28.05;98946.63;5035114;28;20045;-78
2023/03/10 07:47:29;;;;;;;2.40;2.20;;;;;;;21.82;28.29;98955.19;5041591;28;20124;-78
2023/03/10 07:49:55;;;;;;;3.35;2.20;;;;;;;21.65;28.24;98948.00;5039762;28;20073;-78
2023/03/10 07:52:20;;;;;;;2.47;2.28;;;;;;;21.61;28.11;98967.25;5037278;28;20101;-78
2023/03/10 07:54:46;;;;;;;2.42;2.22;;;;;;;21.59;28.23;98974.63;5011306;28;20091;-78
2023/03/10 07:57:14;;;;;;;2.00;1.83;;;;;;;21.46;28.64;98983.63;5043276;28;20121;-79
2023/03/10 07:59:40;;;;;;;2.97;2.20;;;;;;;21.34;28.63;98975.72;5038856;28;20062;-78
2023/03/10 08:02:06;;;;;;;2.10;2.00;;;;;;;21.29;28.74;98988.06;5038685;28;20037;-78
2023/03/10 08:04:32;;;;;;;2.10;1.90;;;;;;;21.14;29.04;98972.63;5041446;28;20033;-78
2023/03/10 08:07:00;;;;;;;2.35;2.15;;;;;;;21.07;28.97;98977.25;5037273;28;20105;-78
2023/03/10 08:09:28;;;;;;;2.17;1.98;;;;;;;21.09;29.21;98996.34;5036934;28;20085;-78
2023/03/10 08:11:57;;;;;;;2.25;2.05;;;;;;;21.03;29.15;99000.72;5026260;28;20041;-78
2023/03/10 08:14:22;;;;;;;2.10;1.90;;;;;;;21.01;29.35;99002.00;5039184;28;20048;-78
2023/03/10 08:16:50;;;;;;;2.20;2.00;;;;;;;20.95;29.43;98998.41;5054208;28;20049;-78
2023/03/10 08:19:15;;;;;;;2.20;2.00;;;;;;;20.95;29.59;99008.19;5043047;28;20034;-78
2023/03/10 08:21:42;;;;;;;3.72;2.20;;;;;;;20.86;29.34;99001.66;5038887;28;20071;-78
2023/03/10 08:24:08;;;;;;;5.50;2.20;;;;;;;20.89;29.46;99007.28;5039359;28;20045;-77
2023/03/10 08:26:33;;;;;;;4.78;2.20;;;;;;;20.85;29.64;99000.03;5026877;28;20041;-77
2023/03/10 08:28:59;;;;;;;3.50;2.45;;;;;;;20.83;29.34;99002.13;5039282;28;20042;-78
2023/03/10 08:31:24;;;;;;;2.50;2.28;;;;;;;20.79;29.36;98991.97;5041235;28;20027;-78
2023/03/10 08:33:55;;;;;;;2.22;2.00;;;;;;;20.73;29.56;98987.59;5044613;28;20045;-77
2023/03/10 08:36:23;;;;;;;2.90;2.38;;;;;;;20.78;29.46;99000.13;5039727;28;20482;-77
2023/03/10 08:38:50;;;;;;;3.70;2.38;;;;;;;20.74;29.57;98994.50;5034003;28;20033;-77
2023/03/10 08:41:25;;;;;;;3.40;2.53;;;;;;;20.75;29.42;98990.81;5039756;28;21048;-77
2023/03/10 08:43:53;;;;;;;3.38;2.22;;;;;;;20.72;29.48;98999.22;5035655;28;20042;-78
2023/03/10 08:46:20;;;;;;;2.85;2.30;;;;;;;20.66;29.45;98994.06;5032811;28;20030;-77
2023/03/10 08:48:46;;;;;;;3.50;2.65;;;;;;;20.64;29.31;99004.03;5024707;28;20049;-77
2023/03/10 08:51:13;;;;;;;2.45;2.20;;;;;;;20.61;29.66;99007.94;5037361;28;20041;-78
2023/03/10 08:53:38;;;;;;;3.13;2.55;;;;;;;20.66;29.59;99016.03;5038005;28;20033;-78
2023/03/10 08:56:05;;;;;;;4.50;2.47;;;;;;;20.64;29.60;99026.00;5037156;28;20053;-78
2023/03/10 08:58:31;;;;;;;2.20;2.00;;;;;;;20.65;29.38;99026.84;5038114;28;20124;-78
2023/03/10 09:00:56;;;;;;;3.50;2.22;;;;;;;20.60;29.66;99026.69;5039183;28;20108;-78
2023/03/10 09:03:23;;;;;;;2.63;2.20;;;;;;;20.58;29.64;99034.84;5034131;28;20086;-78
2023/03/10 09:05:49;;;;;;;3.13;2.40;;;;;;;20.57;29.52;99024.50;5039188;28;20041;-78
2023/03/10 09:08:15;;;;;;;3.58;2.45;;;;;;;20.56;29.72;99022.88;5023757;28;20103;-78
2023/03/10 09:10:42;;;;;;;3.17;2.50;;;;;;;20.56;29.75;99025.53;5046371;28;20060;-78
2023/03/10 09:13:09;;;;;;;3.67;2.50;;;;;;;20.57;29.80;99027.94;5025463;28;20454;-78
2023/03/10 09:15:39;;;;;;;3.05;2.55;;;;;;;20.50;29.49;99014.03;5038449;28;20089;-77
2023/03/10 09:18:07;;;;;;;2.80;2.47;;;;;;;20.52;29.76;99026.00;5032642;28;20037;-79
2023/03/10 09:20:33;;;;;;;2.70;2.50;;;;;;;20.49;29.63;99026.47;5036270;28;20045;-78
2023/03/10 09:22:58;;;;;;;3.03;2.30;;;;;;;20.48;29.61;99037.25;5023380;28;20101;-78
2023/03/10 09:25:24;;;;;;;3.65;2.70;;;;;;;20.37;29.63;99022.13;5036944;28;20049;-78
2023/03/10 09:27:49;;;;;;;2.83;2.20;;;;;;;20.49;29.66;99054.72;5021861;28;20045;-78
2023/03/10 09:30:15;;;;;;;2.72;2.30;;;;;;;20.40;29.63;99045.47;5038626;28;20041;-77
2023/03/10 09:32:40;;;;;;;3.70;2.38;;;;;;;20.41;29.62;99060.31;5020977;28;20038;-77
2023/03/10 09:35:07;;;;;;;3.03;2.70;;;;;;;20.48;29.72;99064.50;5023970;28;20056;-78
2023/03/10 09:37:32;;;;;;;4.18;2.40;;;;;;;20.38;29.53;99047.53;5008554;28;20037;-77
2023/03/10 09:39:58;;;;;;;2.92;2.65;;;;;;;20.47;29.69;99054.97;5033934;28;20120;-77
2023/03/10 09:42:47;;;;;;;2.58;2.38;;;;;;;20.46;29.68;99053.31;5021808;28;20045;-78
2023/03/10 09:45:29;;;;;;;2.83;2.60;;;;;;;20.51;29.52;99042.91;5038231;28;20120;-78
2023/03/10 09:48:04;;;;;;;2.72;2.40;;;;;;;20.77;29.15;99048.78;5019405;28;20080;-78
2023/03/10 09:50:37;;;;;;;5.72;2.60;;;;;;;20.98;28.81;99050.06;5035004;28;20033;-78
2023/03/10 09:53:20;;;;;;;3.40;2.40;;;;;;;21.02;28.99;99053.88;5020012;28;20037;-78
2023/03/10 09:55:46;;;;;;;2.65;2.40;;;;;;;21.04;28.97;99057.09;5038417;28;20071;-77
2023/03/10 09:58:29;;;;;;;2.67;2.47;;;;;;;20.92;29.01;99048.34;5021336;28;20108;-78
2023/03/10 10:00:56;;;;;;;2.65;2.42;;;;;;;20.88;29.02;99055.94;5038351;28;20045;-77
2023/03/10 10:03:34;;;;;;;2.70;2.45;;;;;;;20.85;29.05;99047.66;5020498;28;20037;-77
2023/03/10 10:06:03;;;;;;;3.08;2.35;;;;;;;20.78;29.36;99048.56;5038908;28;20426;-77
2023/03/10 10:08:45;;;;;;;3.42;3.13;;;;;;;20.76;29.61;99055.91;4993576;28;20063;-78
2023/03/10 10:11:16;;;;;;;3.03;2.55;;;;;;;20.65;29.27;99045.34;5037246;28;20037;-78
2023/03/10 10:13:42;;;;;;;2.92;2.53;;;;;;;20.71;29.51;99041.78;5036635;28;20542;-78
2023/03/10 10:16:28;;;;;;;3.72;2.53;;;;;;;20.71;29.51;99052.34;5036264;28;20061;-77
2023/03/10 10:19:18;;;;;;;2.30;2.10;;;;;;;20.64;29.61;99055.09;5019264;28;20029;-78
2023/03/10 10:22:05;;;;;;;2.88;2.58;;;;;;;20.66;29.59;99073.41;5037932;28;20029;-77
2023/03/10 10:24:31;;;;;;;2.58;2.38;;;;;;;20.67;29.20;99075.00;5019859;28;20041;-77
2023/03/10 10:26:57;;;;;;;3.00;2.40;;;;;;;20.63;29.44;99087.84;5032612;28;20048;-77
2023/03/10 10:29:26;;;;;;;2.70;2.50;;;;;;;20.64;29.46;99096.59;5016206;28;20073;-79
2023/03/10 10:32:05;;;;;;;3.17;2.60;;;;;;;20.61;29.67;99089.94;5037066;28;20037;-76
2023/03/10 10:34:32;;;;;;;4.03;2.60;;;;;;;20.60;29.61;99090.97;5016404;28;20057;-77
2023/03/10 10:36:58;;;;;;;3.15;2.50;;;;;;;20.59;29.52;99096.47;5035952;28;20484;-78
2023/03/10 10:39:25;;;;;;;3.65;2.60;;;;;;;20.58;29.56;99094.88;5025391;28;20038;-77
2023/03/10 10:41:52;;;;;;;2.65;2.45;;;;;;;20.53;29.73;99092.91;5033167;28;20041;-78
2023/03/10 10:44:19;;;;;;;2.83;2.47;;;;;;;20.50;29.42;99091.53;5019998;28;20063;-78
2023/03/10 10:46:56;;;;;;;2.17;2.00;;;;;;;20.47;29.56;99083.25;5040381;28;20041;-78
2023/03/10 10:49:27;;;;;;;2.58;2.30;;;;;;;20.40;29.74;99079.84;5015313;28;20068;-78
2023/03/10 10:52:04;;;;;;;2.40;2.20;;;;;;;20.49;29.64;99089.09;5031664;28;20118;-78
2023/03/10 10:54:30;;;;;;;2.38;2.17;;;;;;;20.51;29.64;99092.31;5017273;28;20037;-78
2023/03/10 10:56:59;;;;;;;2.85;2.63;;;;;;;20.40;29.74;99075.34;5035322;28;20142;-78
2023/03/10 10:59:32;;;;;;;2.40;2.20;;;;;;;20.42;29.78;99081.25;5015294;28;20455;-78
2023/03/10 11:02:32;;;;;;;2.65;2.45;;;;;;;20.56;29.49;99095.09;5038033;28;20037;-78
2023/03/10 11:05:19;;;;;;;2.75;2.45;;;;;;;20.58;29.50;99089.56;5003814;28;20048;-78
2023/03/10 11:07:45;;;;;;;3.25;2.50;;;;;;;20.74;29.34;99094.22;5007925;28;20038;-77
2023/03/10 11:10:17;;;;;;;4.32;2.38;;;;;;;20.88;29.24;99084.25;5040207;28;20056;-77
2023/03/10 11:12:42;;;;;;;2.60;2.20;;;;;;;21.20;28.56;99098.75;5015757;28;20038;-78
2023/03/10 11:15:35;;;;;;;2.88;2.40;;;;;;;21.27;28.65;99096.81;5017708;28;20515;-78
2023/03/10 11:18:15;;;;;;;3.17;2.42;;;;;;;21.23;28.70;99095.66;5018436;28;23083;-77
2023/03/10 11:21:10;;;;;;;4.13;2.58;;;;;;;21.15;28.65;99098.63;5035334;28;20087;-78
2023/03/10 11:23:56;;;;;;;3.20;2.67;;;;;;;21.15;28.84;99103.13;5018640;28;20052;-78
2023/03/10 11:26:49;;;;;;;2.50;2.20;;;;;;;21.05;28.99;99098.41;5039560;28;20363;-77
2023/03/10 11:29:20;;;;;;;2.50;2.30;;;;;;;21.02;28.88;99099.69;5016630;28;20050;-79
2023/03/10 11:31:55;;;;;;;3.00;2.70;;;;;;;20.96;29.30;99094.47;5032871;28;20041;-78
2023/03/10 11:34:34;;;;;;;2.60;2.40;;;;;;;20.93;29.08;99095.75;5024703;28;20096;-78
2023/03/10 11:37:28;;;;;;;2.35;2.15;;;;;;;20.89;29.34;99093.78;5035998;28;20037;-78
2023/03/10 11:40:13;;;;;;;2.50;2.30;;;;;;;20.87;29.12;99094.03;5020265;28;20029;-78